sensor_id;sensor_type;location;lat;lon;timestamp;P1;durP1;ratioP1;P2;durP2;ratioP2
61015;SDS011;46902;52.920;6.536;2023-03-21T00:01:35;53.55;;;23.60;;
61015;SDS011;46902;52.920;6.536;2023-03-21T00:04:00;59.33;;;26.20;;
61015;SDS011;46902;52.920;6.536;2023-03-21T00:06:27;82.18;;;28.63;;
61015;SDS011;46902;52.920;6.536;2023-03-21T00:08:52;83.90;;;30.25;;
61015;SDS011;46902;52.920;6.536;2023-03-21T00:11:18;88.78;;;30.67;;
61015;SDS011;46902;52.920;6.536;2023-03-21T00:13:43;86.35;;;30.23;;
61015;SDS011;46902;52.920;6.536;2023-03-21T00:16:13;77.03;;;29.83;;
61015;SDS011;46902;52.920;6.536;2023-03-21T00:18:44;69.18;;;29.38;;
61015;SDS011;46902;52.920;6.536;2023-03-21T00:21:13;78.72;;;30.80;;
61015;SDS011;46902;52.920;6.536;2023-03-21T00:23:40;68.53;;;30.27;;
61015;SDS011;46902;52.920;6.536;2023-03-21T00:26:07;62.25;;;28.67;;
61015;SDS011;46902;52.920;6.536;2023-03-21T00:28:34;76.55;;;31.27;;
61015;SDS011;46902;52.920;6.536;2023-03-21T00:31:01;60.15;;;29.35;;
61015;SDS011;46902;52.920;6.536;2023-03-21T00:33:27;59.33;;;28.55;;
61015;SDS011;46902;52.920;6.536;2023-03-21T00:35:56;59.83;;;29.75;;
61015;SDS011;46902;52.920;6.536;2023-03-21T00:38:22;52.28;;;28.48;;
61015;SDS011;46902;52.920;6.536;2023-03-21T00:40:48;52.88;;;29.88;;
61015;SDS011;46902;52.920;6.536;2023-03-21T00:43:14;56.38;;;28.92;;
61015;SDS011;46902;52.920;6.536;2023-03-21T00:45:47;45.92;;;27.23;;
61015;SDS011;46902;52.920;6.536;2023-03-21T00:48:14;45.78;;;27.75;;
61015;SDS011;46902;52.920;6.536;2023-03-21T00:50:41;52.65;;;28.73;;
61015;SDS011;46902;52.920;6.536;2023-03-21T00:53:09;49.25;;;28.73;;
61015;SDS011;46902;52.920;6.536;2023-03-21T00:55:35;42.60;;;26.65;;
61015;SDS011;46902;52.920;6.536;2023-03-21T00:58:02;55.58;;;28.98;;
61015;SDS011;46902;52.920;6.536;2023-03-21T01:00:28;44.78;;;27.10;;
61015;SDS011;46902;52.920;6.536;2023-03-21T01:02:54;56.55;;;30.17;;
61015;SDS011;46902;52.920;6.536;2023-03-21T01:05:29;45.08;;;27.30;;
61015;SDS011;46902;52.920;6.536;2023-03-21T01:08:16;42.88;;;26.73;;
61015;SDS011;46902;52.920;6.536;2023-03-21T01:10:44;42.63;;;26.08;;
61015;SDS011;46902;52.920;6.536;2023-03-21T01:13:11;40.15;;;25.30;;
61015;SDS011;46902;52.920;6.536;2023-03-21T01:15:50;39.72;;;25.40;;
61015;SDS011;46902;52.920;6.536;2023-03-21T01:18:19;46.10;;;26.55;;
61015;SDS011;46902;52.920;6.536;2023-03-21T01:20:47;48.50;;;26.73;;
61015;SDS011;46902;52.920;6.536;2023-03-21T01:23:13;43.42;;;24.77;;
61015;SDS011;46902;52.920;6.536;2023-03-21T01:25:39;38.38;;;23.48;;
61015;SDS011;46902;52.920;6.536;2023-03-21T01:28:05;39.38;;;23.23;;
61015;SDS011;46902;52.920;6.536;2023-03-21T01:30:32;38.60;;;22.88;;
61015;SDS011;46902;52.920;6.536;2023-03-21T01:32:58;36.05;;;21.50;;
61015;SDS011;46902;52.920;6.536;2023-03-21T01:35:23;38.55;;;22.95;;
61015;SDS011;46902;52.920;6.536;2023-03-21T01:37:49;37.83;;;22.42;;
61015;SDS011;46902;52.920;6.536;2023-03-21T01:40:20;38.08;;;23.02;;
61015;SDS011;46902;52.920;6.536;2023-03-21T01:42:48;41.43;;;23.43;;
61015;SDS011;46902;52.920;6.536;2023-03-21T01:48:17;37.65;;;22.95;;
61015;SDS011;46902;52.920;6.536;2023-03-21T01:50:44;36.03;;;21.60;;
61015;SDS011;46902;52.920;6.536;2023-03-21T01:53:11;34.40;;;22.05;;
61015;SDS011;46902;52.920;6.536;2023-03-21T01:55:37;38.72;;;23.88;;
61015;SDS011;46902;52.920;6.536;2023-03-21T01:58:03;36.15;;;23.13;;
61015;SDS011;46902;52.920;6.536;2023-03-21T02:00:31;36.95;;;23.08;;
61015;SDS011;46902;52.920;6.536;2023-03-21T02:02:58;34.13;;;22.17;;
61015;SDS011;46902;52.920;6.536;2023-03-21T02:05:31;39.80;;;23.35;;
61015;SDS011;46902;52.920;6.536;2023-03-21T02:08:19;35.95;;;23.23;;
61015;SDS011;46902;52.920;6.536;2023-03-21T02:10:45;33.72;;;21.58;;
61015;SDS011;46902;52.920;6.536;2023-03-21T02:13:13;37.03;;;23.13;;
61015;SDS011;46902;52.920;6.536;2023-03-21T02:15:40;35.70;;;22.08;;
61015;SDS011;46902;52.920;6.536;2023-03-21T02:18:16;38.47;;;22.20;;
61015;SDS011;46902;52.920;6.536;2023-03-21T02:20:54;39.25;;;23.08;;
61015;SDS011;46902;52.920;6.536;2023-03-21T02:23:35;40.92;;;23.15;;
61015;SDS011;46902;52.920;6.536;2023-03-21T02:29:21;40.33;;;22.92;;
61015;SDS011;46902;52.920;6.536;2023-03-21T02:37:38;42.65;;;23.40;;
61015;SDS011;46902;52.920;6.536;2023-03-21T02:40:09;38.92;;;23.42;;
61015;SDS011;46902;52.920;6.536;2023-03-21T02:42:45;43.40;;;24.75;;
61015;SDS011;46902;52.920;6.536;2023-03-21T02:45:20;32.85;;;20.92;;
61015;SDS011;46902;52.920;6.536;2023-03-21T02:47:59;32.97;;;20.85;;
61015;SDS011;46902;52.920;6.536;2023-03-21T02:50:45;36.40;;;21.80;;
61015;SDS011;46902;52.920;6.536;2023-03-21T02:53:16;32.30;;;21.33;;
61015;SDS011;46902;52.920;6.536;2023-03-21T02:55:45;34.92;;;21.83;;
61015;SDS011;46902;52.920;6.536;2023-03-21T02:58:12;37.15;;;22.45;;
61015;SDS011;46902;52.920;6.536;2023-03-21T03:00:43;40.63;;;23.95;;
61015;SDS011;46902;52.920;6.536;2023-03-21T03:03:10;40.70;;;23.40;;
61015;SDS011;46902;52.920;6.536;2023-03-21T03:05:39;47.25;;;24.98;;
61015;SDS011;46902;52.920;6.536;2023-03-21T03:13:53;52.53;;;27.13;;
61015;SDS011;46902;52.920;6.536;2023-03-21T03:19:10;48.22;;;25.98;;
61015;SDS011;46902;52.920;6.536;2023-03-21T03:21:48;49.05;;;25.67;;
61015;SDS011;46902;52.920;6.536;2023-03-21T03:27:12;45.08;;;24.20;;
61015;SDS011;46902;52.920;6.536;2023-03-21T03:29:41;45.60;;;23.17;;
61015;SDS011;46902;52.920;6.536;2023-03-21T03:32:12;40.85;;;22.23;;
61015;SDS011;46902;52.920;6.536;2023-03-21T03:34:41;40.13;;;21.10;;
61015;SDS011;46902;52.920;6.536;2023-03-21T03:37:14;35.85;;;19.75;;
61015;SDS011;46902;52.920;6.536;2023-03-21T03:42:20;39.33;;;18.88;;
61015;SDS011;46902;52.920;6.536;2023-03-21T03:44:51;35.95;;;18.95;;
61015;SDS011;46902;52.920;6.536;2023-03-21T03:47:36;30.58;;;17.63;;
61015;SDS011;46902;52.920;6.536;2023-03-21T03:50:08;32.75;;;18.08;;
61015;SDS011;46902;52.920;6.536;2023-03-21T03:52:46;28.30;;;16.50;;
61015;SDS011;46902;52.920;6.536;2023-03-21T03:55:17;31.95;;;17.92;;
61015;SDS011;46902;52.920;6.536;2023-03-21T03:57:45;34.58;;;17.77;;
61015;SDS011;46902;52.920;6.536;2023-03-21T04:00:12;41.03;;;18.45;;
61015;SDS011;46902;52.920;6.536;2023-03-21T04:02:40;30.80;;;17.58;;
61015;SDS011;46902;52.920;6.536;2023-03-21T04:05:06;30.95;;;17.88;;
61015;SDS011;46902;52.920;6.536;2023-03-21T04:07:32;32.20;;;17.80;;
61015;SDS011;46902;52.920;6.536;2023-03-21T04:09:57;28.38;;;16.23;;
61015;SDS011;46902;52.920;6.536;2023-03-21T04:12:23;32.05;;;18.00;;
61015;SDS011;46902;52.920;6.536;2023-03-21T04:14:49;29.77;;;16.17;;
61015;SDS011;46902;52.920;6.536;2023-03-21T04:17:15;35.13;;;17.95;;
61015;SDS011;46902;52.920;6.536;2023-03-21T04:19:42;28.67;;;16.88;;
61015;SDS011;46902;52.920;6.536;2023-03-21T04:22:09;30.70;;;17.92;;
61015;SDS011;46902;52.920;6.536;2023-03-21T04:24:36;31.73;;;18.58;;
61015;SDS011;46902;52.920;6.536;2023-03-21T04:27:03;33.00;;;18.38;;
61015;SDS011;46902;52.920;6.536;2023-03-21T04:29:30;30.65;;;18.05;;
61015;SDS011;46902;52.920;6.536;2023-03-21T04:31:56;29.13;;;17.65;;
61015;SDS011;46902;52.920;6.536;2023-03-21T04:34:21;33.35;;;18.65;;
61015;SDS011;46902;52.920;6.536;2023-03-21T04:36:48;34.67;;;18.05;;
61015;SDS011;46902;52.920;6.536;2023-03-21T04:39:15;37.28;;;19.05;;
61015;SDS011;46902;52.920;6.536;2023-03-21T04:41:41;38.88;;;19.88;;
61015;SDS011;46902;52.920;6.536;2023-03-21T04:44:09;35.33;;;20.05;;
61015;SDS011;46902;52.920;6.536;2023-03-21T04:46:36;41.78;;;22.15;;
61015;SDS011;46902;52.920;6.536;2023-03-21T04:49:02;35.47;;;21.40;;
61015;SDS011;46902;52.920;6.536;2023-03-21T04:51:29;41.50;;;22.92;;
61015;SDS011;46902;52.920;6.536;2023-03-21T04:53:55;48.80;;;24.85;;
61015;SDS011;46902;52.920;6.536;2023-03-21T04:56:27;43.38;;;23.42;;
61015;SDS011;46902;52.920;6.536;2023-03-21T04:58:58;48.00;;;25.52;;
61015;SDS011;46902;52.920;6.536;2023-03-21T05:01:26;37.97;;;23.23;;
61015;SDS011;46902;52.920;6.536;2023-03-21T05:03:58;40.92;;;24.33;;
61015;SDS011;46902;52.920;6.536;2023-03-21T05:06:24;42.50;;;24.75;;
61015;SDS011;46902;52.920;6.536;2023-03-21T05:08:52;40.00;;;24.27;;
61015;SDS011;46902;52.920;6.536;2023-03-21T05:11:24;41.30;;;24.53;;
61015;SDS011;46902;52.920;6.536;2023-03-21T05:13:54;37.60;;;24.92;;
61015;SDS011;46902;52.920;6.536;2023-03-21T05:16:20;40.85;;;25.05;;
61015;SDS011;46902;52.920;6.536;2023-03-21T05:18:49;39.75;;;25.17;;
61015;SDS011;46902;52.920;6.536;2023-03-21T05:21:15;43.15;;;25.88;;
61015;SDS011;46902;52.920;6.536;2023-03-21T05:23:42;37.00;;;24.52;;
61015;SDS011;46902;52.920;6.536;2023-03-21T05:26:08;45.10;;;26.42;;
61015;SDS011;46902;52.920;6.536;2023-03-21T05:28:34;39.35;;;24.52;;
61015;SDS011;46902;52.920;6.536;2023-03-21T05:31:04;43.08;;;26.73;;
61015;SDS011;46902;52.920;6.536;2023-03-21T05:33:30;36.60;;;24.90;;
61015;SDS011;46902;52.920;6.536;2023-03-21T05:35:56;42.65;;;26.02;;
61015;SDS011;46902;52.920;6.536;2023-03-21T05:38:22;45.90;;;26.98;;
61015;SDS011;46902;52.920;6.536;2023-03-21T05:40:49;37.95;;;25.63;;
61015;SDS011;46902;52.920;6.536;2023-03-21T05:43:15;37.20;;;24.85;;
61015;SDS011;46902;52.920;6.536;2023-03-21T05:45:41;37.83;;;24.85;;
61015;SDS011;46902;52.920;6.536;2023-03-21T05:48:07;40.97;;;25.40;;
61015;SDS011;46902;52.920;6.536;2023-03-21T05:50:33;35.22;;;24.42;;
61015;SDS011;46902;52.920;6.536;2023-03-21T05:52:58;42.42;;;25.70;;
61015;SDS011;46902;52.920;6.536;2023-03-21T05:55:24;34.45;;;23.60;;
61015;SDS011;46902;52.920;6.536;2023-03-21T05:57:49;34.45;;;25.02;;
61015;SDS011;46902;52.920;6.536;2023-03-21T06:00:15;38.83;;;24.95;;
61015;SDS011;46902;52.920;6.536;2023-03-21T06:02:42;34.67;;;24.05;;
61015;SDS011;46902;52.920;6.536;2023-03-21T06:05:08;34.05;;;24.05;;
61015;SDS011;46902;52.920;6.536;2023-03-21T06:07:34;30.83;;;22.90;;
61015;SDS011;46902;52.920;6.536;2023-03-21T06:10:01;36.67;;;24.20;;
61015;SDS011;46902;52.920;6.536;2023-03-21T06:12:27;37.35;;;24.88;;
61015;SDS011;46902;52.920;6.536;2023-03-21T06:14:53;35.75;;;24.85;;
61015;SDS011;46902;52.920;6.536;2023-03-21T06:17:18;35.75;;;24.77;;
61015;SDS011;46902;52.920;6.536;2023-03-21T06:19:44;36.72;;;24.65;;
61015;SDS011;46902;52.920;6.536;2023-03-21T06:22:10;36.35;;;25.23;;
61015;SDS011;46902;52.920;6.536;2023-03-21T06:24:35;50.47;;;27.58;;
61015;SDS011;46902;52.920;6.536;2023-03-21T06:27:01;39.50;;;24.73;;
61015;SDS011;46902;52.920;6.536;2023-03-21T06:29:27;44.55;;;25.98;;
61015;SDS011;46902;52.920;6.536;2023-03-21T06:31:52;40.58;;;24.67;;
61015;SDS011;46902;52.920;6.536;2023-03-21T06:34:18;42.42;;;26.35;;
61015;SDS011;46902;52.920;6.536;2023-03-21T06:36:43;38.53;;;25.85;;
61015;SDS011;46902;52.920;6.536;2023-03-21T06:39:10;44.40;;;27.00;;
61015;SDS011;46902;52.920;6.536;2023-03-21T06:41:36;43.45;;;26.17;;
61015;SDS011;46902;52.920;6.536;2023-03-21T06:44:02;41.42;;;25.65;;
61015;SDS011;46902;52.920;6.536;2023-03-21T06:46:28;44.03;;;26.23;;
61015;SDS011;46902;52.920;6.536;2023-03-21T06:48:53;39.70;;;25.48;;
61015;SDS011;46902;52.920;6.536;2023-03-21T06:51:19;38.72;;;25.23;;
61015;SDS011;46902;52.920;6.536;2023-03-21T06:53:45;42.88;;;25.80;;
61015;SDS011;46902;52.920;6.536;2023-03-21T06:56:11;39.78;;;24.42;;
61015;SDS011;46902;52.920;6.536;2023-03-21T06:58:37;32.47;;;21.27;;
61015;SDS011;46902;52.920;6.536;2023-03-21T07:01:04;32.78;;;21.13;;
61015;SDS011;46902;52.920;6.536;2023-03-21T07:03:31;32.30;;;20.45;;
61015;SDS011;46902;52.920;6.536;2023-03-21T07:05:57;32.65;;;19.42;;
61015;SDS011;46902;52.920;6.536;2023-03-21T07:08:23;28.48;;;17.67;;
61015;SDS011;46902;52.920;6.536;2023-03-21T07:10:49;21.13;;;15.18;;
61015;SDS011;46902;52.920;6.536;2023-03-21T07:13:15;23.58;;;14.95;;
61015;SDS011;46902;52.920;6.536;2023-03-21T07:15:41;19.48;;;13.90;;
61015;SDS011;46902;52.920;6.536;2023-03-21T07:18:07;21.00;;;14.15;;
61015;SDS011;46902;52.920;6.536;2023-03-21T07:20:33;17.67;;;12.25;;
61015;SDS011;46902;52.920;6.536;2023-03-21T07:23:02;18.00;;;13.23;;
61015;SDS011;46902;52.920;6.536;2023-03-21T07:25:28;16.73;;;12.50;;
61015;SDS011;46902;52.920;6.536;2023-03-21T07:27:53;14.90;;;11.77;;
61015;SDS011;46902;52.920;6.536;2023-03-21T07:30:19;16.90;;;12.13;;
61015;SDS011;46902;52.920;6.536;2023-03-21T07:32:45;15.82;;;12.45;;
61015;SDS011;46902;52.920;6.536;2023-03-21T07:35:12;17.35;;;13.77;;
61015;SDS011;46902;52.920;6.536;2023-03-21T07:37:40;21.40;;;15.00;;
61015;SDS011;46902;52.920;6.536;2023-03-21T07:40:06;19.77;;;14.35;;
61015;SDS011;46902;52.920;6.536;2023-03-21T07:42:36;18.75;;;14.40;;
61015;SDS011;46902;52.920;6.536;2023-03-21T07:45:06;20.88;;;16.02;;
61015;SDS011;46902;52.920;6.536;2023-03-21T07:47:33;19.55;;;15.38;;
61015;SDS011;46902;52.920;6.536;2023-03-21T07:49:59;21.95;;;15.15;;
61015;SDS011;46902;52.920;6.536;2023-03-21T07:52:25;19.45;;;15.07;;
61015;SDS011;46902;52.920;6.536;2023-03-21T07:54:51;20.48;;;15.40;;
61015;SDS011;46902;52.920;6.536;2023-03-21T07:57:16;19.67;;;15.98;;
61015;SDS011;46902;52.920;6.536;2023-03-21T07:59:42;18.50;;;16.02;;
61015;SDS011;46902;52.920;6.536;2023-03-21T08:02:17;19.48;;;16.05;;
61015;SDS011;46902;52.920;6.536;2023-03-21T08:04:43;18.63;;;15.52;;
61015;SDS011;46902;52.920;6.536;2023-03-21T08:07:09;18.60;;;15.70;;
61015;SDS011;46902;52.920;6.536;2023-03-21T08:09:35;21.40;;;16.05;;
61015;SDS011;46902;52.920;6.536;2023-03-21T08:12:01;22.23;;;15.77;;
61015;SDS011;46902;52.920;6.536;2023-03-21T08:14:27;22.60;;;15.65;;
61015;SDS011;46902;52.920;6.536;2023-03-21T08:16:53;20.33;;;15.18;;
61015;SDS011;46902;52.920;6.536;2023-03-21T08:19:18;19.00;;;14.50;;
61015;SDS011;46902;52.920;6.536;2023-03-21T08:21:46;20.05;;;15.45;;
61015;SDS011;46902;52.920;6.536;2023-03-21T08:24:13;18.98;;;15.02;;
61015;SDS011;46902;52.920;6.536;2023-03-21T08:26:40;18.48;;;14.45;;
61015;SDS011;46902;52.920;6.536;2023-03-21T08:29:06;16.00;;;12.20;;
61015;SDS011;46902;52.920;6.536;2023-03-21T08:31:32;17.60;;;14.35;;
61015;SDS011;46902;52.920;6.536;2023-03-21T08:33:57;18.83;;;14.52;;
61015;SDS011;46902;52.920;6.536;2023-03-21T08:36:23;18.77;;;14.48;;
61015;SDS011;46902;52.920;6.536;2023-03-21T08:38:49;23.13;;;15.45;;
61015;SDS011;46902;52.920;6.536;2023-03-21T08:41:18;20.13;;;13.95;;
61015;SDS011;46902;52.920;6.536;2023-03-21T08:43:46;19.27;;;14.43;;
61015;SDS011;46902;52.920;6.536;2023-03-21T08:46:12;19.10;;;13.73;;
61015;SDS011;46902;52.920;6.536;2023-03-21T08:48:38;19.05;;;14.05;;
61015;SDS011;46902;52.920;6.536;2023-03-21T08:51:04;18.73;;;14.63;;
61015;SDS011;46902;52.920;6.536;2023-03-21T08:53:30;20.80;;;15.27;;
61015;SDS011;46902;52.920;6.536;2023-03-21T08:55:57;19.45;;;14.07;;
61015;SDS011;46902;52.920;6.536;2023-03-21T08:58:22;24.10;;;16.15;;
61015;SDS011;46902;52.920;6.536;2023-03-21T09:00:48;24.58;;;16.70;;
61015;SDS011;46902;52.920;6.536;2023-03-21T09:03:13;21.45;;;15.52;;
61015;SDS011;46902;52.920;6.536;2023-03-21T09:05:41;22.95;;;16.00;;
61015;SDS011;46902;52.920;6.536;2023-03-21T09:08:09;24.65;;;16.38;;
61015;SDS011;46902;52.920;6.536;2023-03-21T09:10:37;24.75;;;16.48;;
61015;SDS011;46902;52.920;6.536;2023-03-21T09:13:02;25.48;;;16.00;;
61015;SDS011;46902;52.920;6.536;2023-03-21T09:15:28;27.30;;;16.83;;
61015;SDS011;46902;52.920;6.536;2023-03-21T09:17:54;25.23;;;16.05;;
61015;SDS011;46902;52.920;6.536;2023-03-21T09:20:23;25.75;;;17.95;;
61015;SDS011;46902;52.920;6.536;2023-03-21T09:22:54;28.08;;;18.15;;
61015;SDS011;46902;52.920;6.536;2023-03-21T09:25:21;31.00;;;18.25;;
61015;SDS011;46902;52.920;6.536;2023-03-21T09:27:48;29.52;;;17.63;;
61015;SDS011;46902;52.920;6.536;2023-03-21T09:30:16;28.52;;;18.70;;
61015;SDS011;46902;52.920;6.536;2023-03-21T09:32:44;29.88;;;18.35;;
61015;SDS011;46902;52.920;6.536;2023-03-21T09:35:12;29.23;;;18.75;;
61015;SDS011;46902;52.920;6.536;2023-03-21T09:37:40;30.52;;;18.80;;
61015;SDS011;46902;52.920;6.536;2023-03-21T09:43:04;33.33;;;18.42;;
61015;SDS011;46902;52.920;6.536;2023-03-21T09:45:51;29.30;;;19.55;;
61015;SDS011;46902;52.920;6.536;2023-03-21T09:48:45;28.83;;;19.33;;
61015;SDS011;46902;52.920;6.536;2023-03-21T09:51:12;30.85;;;18.13;;
61015;SDS011;46902;52.920;6.536;2023-03-21T09:53:41;31.23;;;19.65;;
61015;SDS011;46902;52.920;6.536;2023-03-21T09:56:12;30.50;;;19.85;;
61015;SDS011;46902;52.920;6.536;2023-03-21T10:01:29;27.73;;;19.05;;
61015;SDS011;46902;52.920;6.536;2023-03-21T10:04:06;29.48;;;17.90;;
61015;SDS011;46902;52.920;6.536;2023-03-21T10:06:35;31.60;;;17.85;;
61015;SDS011;46902;52.920;6.536;2023-03-21T10:09:05;29.10;;;19.00;;
61015;SDS011;46902;52.920;6.536;2023-03-21T10:11:55;29.10;;;17.42;;
61015;SDS011;46902;52.920;6.536;2023-03-21T10:14:38;27.55;;;16.05;;
61015;SDS011;46902;52.920;6.536;2023-03-21T10:17:40;22.83;;;15.07;;
61015;SDS011;46902;52.920;6.536;2023-03-21T10:22:45;27.85;;;16.00;;
61015;SDS011;46902;52.920;6.536;2023-03-21T10:25:18;24.25;;;15.60;;
61015;SDS011;46902;52.920;6.536;2023-03-21T10:27:46;29.03;;;16.53;;
61015;SDS011;46902;52.920;6.536;2023-03-21T10:30:18;23.58;;;15.60;;
61015;SDS011;46902;52.920;6.536;2023-03-21T10:32:52;26.55;;;15.25;;
61015;SDS011;46902;52.920;6.536;2023-03-21T10:35:20;31.05;;;16.63;;
61015;SDS011;46902;52.920;6.536;2023-03-21T10:37:46;29.80;;;17.10;;
61015;SDS011;46902;52.920;6.536;2023-03-21T10:40:15;22.27;;;13.57;;
61015;SDS011;46902;52.920;6.536;2023-03-21T10:42:41;23.17;;;13.90;;
61015;SDS011;46902;52.920;6.536;2023-03-21T10:45:15;23.08;;;13.45;;
61015;SDS011;46902;52.920;6.536;2023-03-21T10:47:43;22.50;;;13.48;;
61015;SDS011;46902;52.920;6.536;2023-03-21T10:50:13;26.27;;;13.27;;
61015;SDS011;46902;52.920;6.536;2023-03-21T10:52:42;22.70;;;13.88;;
61015;SDS011;46902;52.920;6.536;2023-03-21T10:55:19;25.10;;;14.10;;
61015;SDS011;46902;52.920;6.536;2023-03-21T10:57:51;24.52;;;14.68;;
61015;SDS011;46902;52.920;6.536;2023-03-21T11:02:50;27.63;;;13.75;;
61015;SDS011;46902;52.920;6.536;2023-03-21T11:13:19;23.02;;;13.38;;
61015;SDS011;46902;52.920;6.536;2023-03-21T11:15:56;20.38;;;12.82;;
61015;SDS011;46902;52.920;6.536;2023-03-21T11:18:30;19.40;;;11.02;;
61015;SDS011;46902;52.920;6.536;2023-03-21T11:21:03;20.52;;;10.80;;
61015;SDS011;46902;52.920;6.536;2023-03-21T11:23:31;19.85;;;12.30;;
61015;SDS011;46902;52.920;6.536;2023-03-21T11:26:00;19.75;;;10.35;;
61015;SDS011;46902;52.920;6.536;2023-03-21T11:28:35;18.10;;;11.35;;
61015;SDS011;46902;52.920;6.536;2023-03-21T11:31:03;18.27;;;11.27;;
61015;SDS011;46902;52.920;6.536;2023-03-21T11:38:42;20.02;;;11.10;;
61015;SDS011;46902;52.920;6.536;2023-03-21T11:41:14;18.50;;;11.20;;
61015;SDS011;46902;52.920;6.536;2023-03-21T11:43:51;18.63;;;9.80;;
61015;SDS011;46902;52.920;6.536;2023-03-21T11:46:21;17.80;;;10.55;;
61015;SDS011;46902;52.920;6.536;2023-03-21T11:48:48;17.52;;;11.00;;
61015;SDS011;46902;52.920;6.536;2023-03-21T11:54:39;15.88;;;8.82;;
61015;SDS011;46902;52.920;6.536;2023-03-21T11:56:46;19.05;;;8.88;;
61015;SDS011;46902;52.920;6.536;2023-03-21T11:59:28;14.52;;;8.60;;
61015;SDS011;46902;52.920;6.536;2023-03-21T12:02:20;16.75;;;8.80;;
61015;SDS011;46902;52.920;6.536;2023-03-21T12:05:26;18.38;;;8.95;;
61015;SDS011;46902;52.920;6.536;2023-03-21T12:10:46;15.95;;;9.23;;
61015;SDS011;46902;52.920;6.536;2023-03-21T12:21:44;13.40;;;7.93;;
61015;SDS011;46902;52.920;6.536;2023-03-21T12:24:37;13.05;;;8.02;;
61015;SDS011;46902;52.920;6.536;2023-03-21T12:27:17;14.27;;;8.57;;
61015;SDS011;46902;52.920;6.536;2023-03-21T12:46:08;14.68;;;7.05;;
61015;SDS011;46902;52.920;6.536;2023-03-21T12:48:45;16.45;;;7.38;;
61015;SDS011;46902;52.920;6.536;2023-03-21T12:51:25;13.23;;;7.70;;
61015;SDS011;46902;52.920;6.536;2023-03-21T12:56:30;15.05;;;8.23;;
61015;SDS011;46902;52.920;6.536;2023-03-21T13:01:50;12.07;;;7.18;;
61015;SDS011;46902;52.920;6.536;2023-03-21T13:04:26;13.48;;;7.05;;
61015;SDS011;46902;52.920;6.536;2023-03-21T13:06:59;14.25;;;7.25;;
61015;SDS011;46902;52.920;6.536;2023-03-21T13:09:34;13.40;;;7.30;;
61015;SDS011;46902;52.920;6.536;2023-03-21T13:12:47;11.90;;;7.70;;
61015;SDS011;46902;52.920;6.536;2023-03-21T13:17:36;17.10;;;7.65;;
61015;SDS011;46902;52.920;6.536;2023-03-21T13:23:05;12.73;;;7.43;;
61015;SDS011;46902;52.920;6.536;2023-03-21T13:25:34;14.18;;;9.20;;
61015;SDS011;46902;52.920;6.536;2023-03-21T13:28:12;14.75;;;7.20;;
61015;SDS011;46902;52.920;6.536;2023-03-21T13:30:45;14.00;;;7.25;;
61015;SDS011;46902;52.920;6.536;2023-03-21T13:33:13;12.85;;;7.63;;
61015;SDS011;46902;52.920;6.536;2023-03-21T13:35:42;12.90;;;7.00;;
61015;SDS011;46902;52.920;6.536;2023-03-21T13:38:20;13.70;;;7.88;;
61015;SDS011;46902;52.920;6.536;2023-03-21T13:40:58;14.88;;;6.57;;
61015;SDS011;46902;52.920;6.536;2023-03-21T13:51:18;11.95;;;7.25;;
61015;SDS011;46902;52.920;6.536;2023-03-21T13:56:56;15.45;;;7.85;;
61015;SDS011;46902;52.920;6.536;2023-03-21T13:59:42;18.55;;;6.72;;
61015;SDS011;46902;52.920;6.536;2023-03-21T14:04:37;19.13;;;6.65;;
61015;SDS011;46902;52.920;6.536;2023-03-21T14:07:12;14.23;;;7.32;;
61015;SDS011;46902;52.920;6.536;2023-03-21T14:09:47;14.95;;;7.25;;
61015;SDS011;46902;52.920;6.536;2023-03-21T14:12:17;14.05;;;7.82;;
61015;SDS011;46902;52.920;6.536;2023-03-21T14:15:22;12.32;;;7.10;;
61015;SDS011;46902;52.920;6.536;2023-03-21T14:20:37;12.77;;;6.53;;
61015;SDS011;46902;52.920;6.536;2023-03-21T14:23:04;12.60;;;7.20;;
61015;SDS011;46902;52.920;6.536;2023-03-21T14:25:35;18.00;;;7.47;;
61015;SDS011;46902;52.920;6.536;2023-03-21T14:28:03;11.27;;;6.97;;
61015;SDS011;46902;52.920;6.536;2023-03-21T14:30:36;12.77;;;6.63;;
61015;SDS011;46902;52.920;6.536;2023-03-21T14:33:14;12.13;;;7.28;;
61015;SDS011;46902;52.920;6.536;2023-03-21T14:35:45;12.73;;;6.70;;
61015;SDS011;46902;52.920;6.536;2023-03-21T14:38:23;11.77;;;6.60;;
61015;SDS011;46902;52.920;6.536;2023-03-21T14:40:52;15.68;;;6.65;;
61015;SDS011;46902;52.920;6.536;2023-03-21T14:43:20;12.70;;;6.40;;
61015;SDS011;46902;52.920;6.536;2023-03-21T14:45:46;12.43;;;7.13;;
61015;SDS011;46902;52.920;6.536;2023-03-21T14:48:15;11.52;;;6.35;;
61015;SDS011;46902;52.920;6.536;2023-03-21T14:53:16;13.27;;;6.95;;
61015;SDS011;46902;52.920;6.536;2023-03-21T14:55:57;12.07;;;7.00;;
61015;SDS011;46902;52.920;6.536;2023-03-21T14:58:28;13.00;;;6.38;;
61015;SDS011;46902;52.920;6.536;2023-03-21T15:00:56;15.15;;;7.22;;
61015;SDS011;46902;52.920;6.536;2023-03-21T15:03:25;14.48;;;6.80;;
61015;SDS011;46902;52.920;6.536;2023-03-21T15:05:52;14.50;;;7.00;;
61015;SDS011;46902;52.920;6.536;2023-03-21T15:08:20;13.45;;;6.88;;
61015;SDS011;46902;52.920;6.536;2023-03-21T15:11:01;11.20;;;6.53;;
61015;SDS011;46902;52.920;6.536;2023-03-21T15:13:32;15.60;;;7.43;;
61015;SDS011;46902;52.920;6.536;2023-03-21T15:16:00;15.10;;;7.27;;
61015;SDS011;46902;52.920;6.536;2023-03-21T15:18:28;11.93;;;6.93;;
61015;SDS011;46902;52.920;6.536;2023-03-21T15:21:02;11.75;;;6.63;;
61015;SDS011;46902;52.920;6.536;2023-03-21T15:24:00;15.23;;;7.53;;
61015;SDS011;46902;52.920;6.536;2023-03-21T15:26:32;11.70;;;6.50;;
61015;SDS011;46902;52.920;6.536;2023-03-21T15:28:58;14.25;;;7.38;;
61015;SDS011;46902;52.920;6.536;2023-03-21T15:31:27;13.35;;;7.05;;
61015;SDS011;46902;52.920;6.536;2023-03-21T15:33:55;15.20;;;7.50;;
61015;SDS011;46902;52.920;6.536;2023-03-21T15:36:24;16.15;;;7.85;;
61015;SDS011;46902;52.920;6.536;2023-03-21T15:38:52;10.85;;;7.38;;
61015;SDS011;46902;52.920;6.536;2023-03-21T15:43:48;17.63;;;7.95;;
61015;SDS011;46902;52.920;6.536;2023-03-21T15:49:45;15.80;;;7.47;;
61015;SDS011;46902;52.920;6.536;2023-03-21T15:51:58;13.05;;;7.63;;
61015;SDS011;46902;52.920;6.536;2023-03-21T15:54:29;14.98;;;7.53;;
61015;SDS011;46902;52.920;6.536;2023-03-21T15:57:02;13.93;;;7.53;;
61015;SDS011;46902;52.920;6.536;2023-03-21T15:59:40;12.57;;;7.80;;
61015;SDS011;46902;52.920;6.536;2023-03-21T16:02:16;15.02;;;7.82;;
61015;SDS011;46902;52.920;6.536;2023-03-21T16:04:55;15.70;;;7.75;;
61015;SDS011;46902;52.920;6.536;2023-03-21T16:07:25;11.35;;;7.35;;
61015;SDS011;46902;52.920;6.536;2023-03-21T16:09:56;10.60;;;7.40;;
61015;SDS011;46902;52.920;6.536;2023-03-21T16:12:24;11.25;;;7.97;;
61015;SDS011;46902;52.920;6.536;2023-03-21T16:14:49;13.13;;;8.15;;
61015;SDS011;46902;52.920;6.536;2023-03-21T16:17:36;14.57;;;8.02;;
61015;SDS011;46902;52.920;6.536;2023-03-21T16:20:02;12.77;;;7.80;;
61015;SDS011;46902;52.920;6.536;2023-03-21T16:22:41;13.00;;;8.73;;
61015;SDS011;46902;52.920;6.536;2023-03-21T16:25:07;14.93;;;8.20;;
61015;SDS011;46902;52.920;6.536;2023-03-21T16:27:33;11.40;;;8.02;;
61015;SDS011;46902;52.920;6.536;2023-03-21T16:29:59;14.68;;;7.68;;
61015;SDS011;46902;52.920;6.536;2023-03-21T16:32:25;11.85;;;8.38;;
61015;SDS011;46902;52.920;6.536;2023-03-21T16:34:51;13.90;;;8.80;;
61015;SDS011;46902;52.920;6.536;2023-03-21T16:37:20;14.63;;;9.32;;